createdAt,value
2023-04-23T00:01:42.730Z,20.38
2023-04-23T00:04:09.503Z,19.17
2023-04-23T00:06:36.557Z,23.63
2023-04-23T00:09:04.110Z,19.45
2023-04-23T00:11:30.782Z,19.75
2023-04-23T00:13:57.477Z,18.23
2023-04-23T00:16:24.861Z,19.85
2023-04-23T00:18:51.477Z,23.02
2023-04-23T00:21:18.030Z,15.55
2023-04-23T00:23:44.547Z,17.35
2023-04-23T00:26:11.045Z,19.25
2023-04-23T00:28:37.569Z,20.48
2023-04-23T00:31:04.093Z,16.00
2023-04-23T00:33:30.648Z,18.63
2023-04-23T00:35:57.166Z,20.60
2023-04-23T00:38:23.862Z,16.48
2023-04-23T00:40:50.642Z,20.42
2023-04-23T00:43:17.794Z,17.15
2023-04-23T00:45:44.605Z,19.00
2023-04-23T00:48:11.310Z,14.52
2023-04-23T00:50:37.844Z,19.95
2023-04-23T00:53:04.474Z,17.92
2023-04-23T00:55:31.031Z,21.25
2023-04-23T00:57:57.530Z,21.45
2023-04-23T01:00:24.190Z,22.30
2023-04-23T01:02:53.134Z,16.73
2023-04-23T01:05:20.348Z,19.02
2023-04-23T01:07:47.108Z,18.98
2023-04-23T01:10:13.758Z,19.92
2023-04-23T01:12:40.380Z,19.70
2023-04-23T01:15:07.805Z,20.27
2023-04-23T01:17:34.523Z,20.88
2023-04-23T01:20:01.204Z,20.42
2023-04-23T01:22:27.806Z,17.98
2023-04-23T01:24:54.758Z,17.77
2023-04-23T01:27:22.384Z,21.42
2023-04-23T01:29:49.442Z,23.70
2023-04-23T01:32:16.319Z,17.92
2023-04-23T01:34:43.553Z,19.90
2023-04-23T01:37:10.753Z,17.63
2023-04-23T01:39:37.321Z,19.90
2023-04-23T01:42:04.189Z,15.15
2023-04-23T01:44:30.963Z,17.63
2023-04-23T01:46:57.625Z,19.88
2023-04-23T01:49:24.186Z,16.45
2023-04-23T01:51:50.738Z,16.17
2023-04-23T01:54:17.219Z,15.70
2023-04-23T01:56:43.727Z,20.30
2023-04-23T01:59:10.260Z,16.20
2023-04-23T02:01:44.394Z,16.90
2023-04-23T02:04:12.508Z,17.55
2023-04-23T02:06:39.664Z,16.48
2023-04-23T02:09:06.169Z,14.95
2023-04-23T02:11:32.801Z,19.67
2023-04-23T02:13:59.751Z,20.83
2023-04-23T02:16:26.713Z,19.27
2023-04-23T02:18:53.306Z,17.48
2023-04-23T02:21:19.818Z,19.27
2023-04-23T02:23:46.475Z,19.05
2023-04-23T02:26:13.005Z,18.23
2023-04-23T02:28:39.478Z,20.13
2023-04-23T02:31:06.729Z,20.65
2023-04-23T02:33:33.268Z,12.32
2023-04-23T02:35:59.801Z,15.75
2023-04-23T02:38:26.314Z,18.25
2023-04-23T02:40:52.879Z,14.95
2023-04-23T02:43:19.397Z,15.05
2023-04-23T02:45:45.970Z,17.70
2023-04-23T02:48:12.627Z,15.15
2023-04-23T02:50:39.308Z,13.75
2023-04-23T02:53:05.803Z,19.55
2023-04-23T02:55:32.355Z,19.05
2023-04-23T02:57:59.367Z,16.60
2023-04-23T03:00:26.408Z,13.32
2023-04-23T03:02:53.174Z,13.57
2023-04-23T03:05:19.897Z,14.20
2023-04-23T03:07:46.363Z,17.38
2023-04-23T03:10:12.925Z,16.08
2023-04-23T03:12:39.547Z,13.50
2023-04-23T03:15:06.364Z,14.95
2023-04-23T03:17:33.044Z,14.43
2023-04-23T03:19:59.647Z,12.18
2023-04-23T03:22:26.205Z,15.50
2023-04-23T03:24:52.723Z,12.70
2023-04-23T03:27:19.227Z,12.85
2023-04-23T03:29:46.455Z,16.20
2023-04-23T03:32:12.943Z,12.57
2023-04-23T03:34:39.728Z,17.75
2023-04-23T03:37:06.502Z,16.40
2023-04-23T03:39:33.021Z,15.07
2023-04-23T03:41:59.505Z,17.67
2023-04-23T03:44:25.982Z,11.18
2023-04-23T03:46:52.606Z,14.18
2023-04-23T03:49:19.176Z,11.75
2023-04-23T03:51:45.722Z,11.68
2023-04-23T03:54:12.220Z,13.63
2023-04-23T03:56:38.748Z,15.30
2023-04-23T03:59:05.268Z,11.70
2023-04-23T04:01:33.040Z,14.52
2023-04-23T04:03:59.813Z,10.73
2023-04-23T04:06:26.574Z,12.85
2023-04-23T04:08:53.094Z,12.73
2023-04-23T04:11:19.630Z,18.80
2023-04-23T04:13:46.115Z,15.35
2023-04-23T04:16:12.626Z,19.85
2023-04-23T04:18:39.555Z,12.50
2023-04-23T04:21:06.074Z,16.50
2023-04-23T04:23:33.643Z,19.25
2023-04-23T04:26:00.658Z,18.02
2023-04-23T04:28:27.537Z,17.77
2023-04-23T04:30:54.268Z,20.08
2023-04-23T04:33:21.143Z,14.57
2023-04-23T04:35:49.753Z,16.02
2023-04-23T04:38:16.285Z,16.00
2023-04-23T04:40:42.859Z,22.20
2023-04-23T04:43:10.548Z,16.80
2023-04-23T04:45:37.102Z,24.50
2023-04-23T04:48:03.654Z,22.15
2023-04-23T04:50:30.249Z,18.23
2023-04-23T04:52:56.732Z,22.33
2023-04-23T04:55:23.311Z,23.00
2023-04-23T04:57:49.831Z,18.27
2023-04-23T05:00:21.134Z,26.42
2023-04-23T05:02:47.978Z,17.55
2023-04-23T05:05:15.108Z,19.30
2023-04-23T05:07:41.577Z,20.33
2023-04-23T05:10:08.363Z,20.83
2023-04-23T05:12:34.865Z,23.00
2023-04-23T05:15:01.474Z,25.15
2023-04-23T05:17:28.026Z,22.60
2023-04-23T05:19:54.667Z,21.52
2023-04-23T05:22:21.351Z,21.02
2023-04-23T05:24:47.873Z,24.00
2023-04-23T05:27:14.409Z,18.15
2023-04-23T05:29:41.322Z,20.70
2023-04-23T05:32:07.922Z,20.65
2023-04-23T05:34:34.499Z,20.65
2023-04-23T05:37:02.158Z,21.98
2023-04-23T05:39:28.648Z,22.92
2023-04-23T05:41:55.207Z,19.48
2023-04-23T05:44:21.732Z,19.75
2023-04-23T05:46:48.328Z,18.55
2023-04-23T05:49:14.839Z,24.83
2023-04-23T05:51:41.326Z,14.43
2023-04-23T05:54:07.825Z,12.73
2023-04-23T05:56:34.377Z,12.90
2023-04-23T05:59:00.869Z,17.17
2023-04-23T06:01:27.357Z,15.65
2023-04-23T06:03:54.116Z,14.65
2023-04-23T06:06:20.810Z,13.70
2023-04-23T06:08:47.473Z,12.38
2023-04-23T06:11:14.005Z,18.30
2023-04-23T06:13:43.657Z,14.18
2023-04-23T06:16:10.502Z,13.50
2023-04-23T06:18:37.930Z,14.77
2023-04-23T06:21:04.678Z,15.38
2023-04-23T06:23:31.438Z,16.33
2023-04-23T06:25:58.090Z,14.50
2023-04-23T06:28:25.009Z,15.82
2023-04-23T06:30:51.845Z,14.98
2023-04-23T06:33:18.494Z,14.70
2023-04-23T06:35:46.839Z,17.80
2023-04-23T06:38:13.818Z,18.17
2023-04-23T06:40:40.490Z,15.73
2023-04-23T06:43:08.093Z,20.00
2023-04-23T06:45:35.299Z,21.58
2023-04-23T06:48:01.843Z,23.02
2023-04-23T06:50:28.421Z,12.57
2023-04-23T06:52:56.434Z,22.20
2023-04-23T06:55:26.324Z,26.85
2023-04-23T06:57:53.273Z,23.85
2023-04-23T07:00:19.980Z,25.42
2023-04-23T07:02:47.306Z,25.42
2023-04-23T07:05:14.061Z,29.02
2023-04-23T07:07:43.492Z,24.55
2023-04-23T07:10:12.052Z,33.75
2023-04-23T07:12:39.238Z,31.00
2023-04-23T07:15:06.977Z,31.67
2023-04-23T07:17:33.584Z,29.33
2023-04-23T07:22:27.348Z,42.42
2023-04-23T07:24:55.336Z,39.17
2023-04-23T07:27:21.891Z,43.75
2023-04-23T07:29:48.411Z,43.05
2023-04-23T07:32:15.029Z,42.60
2023-04-23T07:34:41.866Z,37.42
2023-04-23T07:37:08.595Z,33.47
2023-04-23T07:39:35.299Z,36.83
2023-04-23T07:42:04.693Z,35.08
2023-04-23T07:44:31.557Z,38.30
2023-04-23T07:46:58.366Z,37.60
2023-04-23T07:49:25.622Z,45.35
2023-04-23T07:51:52.137Z,49.00
2023-04-23T07:54:18.663Z,43.90
2023-04-23T07:56:45.152Z,42.95
2023-04-23T07:59:11.745Z,59.05
2023-04-23T08:01:38.300Z,52.53
2023-04-23T08:04:05.006Z,48.55
2023-04-23T08:06:33.676Z,45.00
2023-04-23T08:09:00.410Z,49.30
2023-04-23T08:11:29.650Z,39.60
2023-04-23T08:13:56.149Z,42.90
2023-04-23T08:16:22.859Z,41.08
2023-04-23T08:19:01.755Z,59.97
2023-04-23T08:21:32.640Z,58.13
2023-04-23T08:23:59.363Z,46.88
2023-04-23T08:26:26.081Z,45.53
2023-04-23T08:28:52.698Z,50.90
2023-04-23T08:31:26.582Z,47.95
2023-04-23T08:33:54.010Z,54.88
2023-04-23T08:36:20.644Z,55.88
2023-04-23T08:38:47.177Z,40.60
2023-04-23T08:41:14.612Z,59.30
2023-04-23T08:44:01.401Z,52.88
2023-04-23T08:46:29.243Z,50.58
2023-04-23T08:48:56.252Z,53.70
2023-04-23T08:51:25.459Z,50.95
2023-04-23T08:53:56.397Z,49.50
2023-04-23T08:56:23.969Z,52.03
2023-04-23T08:58:50.692Z,40.03
2023-04-23T09:01:17.766Z,39.60
2023-04-23T09:03:44.410Z,30.35
2023-04-23T09:06:11.095Z,32.13
2023-04-23T09:08:38.307Z,41.20
2023-04-23T09:11:05.090Z,32.67
2023-04-23T09:13:32.142Z,40.80
2023-04-23T09:15:58.704Z,24.55
2023-04-23T09:18:25.202Z,23.05
2023-04-23T09:20:53.378Z,24.75
2023-04-23T09:23:21.782Z,29.30
2023-04-23T09:25:48.274Z,19.77
2023-04-23T09:28:15.545Z,21.60
2023-04-23T09:30:45.714Z,17.23
2023-04-23T09:33:12.785Z,15.18
2023-04-23T09:35:40.823Z,16.83
2023-04-23T09:38:08.159Z,23.38
2023-04-23T09:40:34.920Z,15.20
2023-04-23T09:43:03.626Z,13.52
2023-04-23T09:45:30.391Z,8.75
2023-04-23T09:48:01.352Z,11.82
2023-04-23T09:50:33.921Z,12.68
2023-04-23T09:53:00.555Z,15.68
2023-04-23T09:55:31.772Z,14.43
2023-04-23T09:57:58.434Z,23.58
2023-04-23T10:00:29.443Z,15.25
2023-04-23T10:02:56.176Z,20.40
2023-04-23T10:05:25.920Z,22.38
2023-04-23T10:07:57.609Z,20.23
2023-04-23T10:10:25.388Z,18.80
2023-04-23T10:12:55.544Z,17.10
2023-04-23T10:15:23.668Z,18.05
2023-04-23T10:17:51.381Z,19.65
2023-04-23T10:20:19.338Z,19.20
2023-04-23T10:22:46.696Z,17.63
2023-04-23T10:25:13.362Z,20.02
2023-04-23T10:27:53.144Z,17.20
2023-04-23T10:30:20.729Z,15.10
2023-04-23T10:32:48.485Z,11.23
2023-04-23T10:35:15.153Z,12.75
2023-04-23T10:37:42.196Z,6.95
2023-04-23T10:40:12.474Z,9.13
2023-04-23T10:42:39.709Z,12.35
2023-04-23T10:45:23.305Z,13.40
2023-04-23T10:47:53.082Z,8.35
2023-04-23T10:50:20.372Z,10.65
2023-04-23T10:52:53.464Z,7.10
2023-04-23T10:55:24.203Z,11.48
2023-04-23T10:58:01.501Z,14.05
2023-04-23T11:00:30.493Z,11.35
2023-04-23T11:02:57.481Z,13.02
2023-04-23T11:05:26.008Z,13.85
2023-04-23T11:10:51.237Z,12.48
2023-04-23T11:13:22.492Z,11.57
2023-04-23T11:15:49.056Z,10.20
2023-04-23T11:18:15.611Z,11.35
2023-04-23T11:20:42.288Z,8.65
2023-04-23T11:23:28.780Z,18.17
2023-04-23T11:25:55.461Z,20.77
2023-04-23T11:28:21.990Z,17.58
2023-04-23T11:30:50.793Z,16.52
2023-04-23T11:33:17.415Z,22.45
2023-04-23T11:35:44.128Z,17.83
2023-04-23T11:38:11.203Z,18.08
2023-04-23T11:40:40.496Z,21.55
2023-04-23T11:43:09.639Z,21.50
2023-04-23T11:45:36.591Z,16.20
2023-04-23T11:48:03.250Z,22.40
2023-04-23T11:50:30.915Z,16.33
2023-04-23T11:52:57.496Z,21.02
2023-04-23T11:55:24.130Z,24.20
2023-04-23T11:57:51.759Z,20.42
2023-04-23T12:00:22.770Z,17.80
2023-04-23T12:03:03.018Z,16.52
2023-04-23T12:05:36.841Z,19.95
2023-04-23T12:08:15.175Z,25.23
2023-04-23T12:10:42.350Z,40.47
2023-04-23T12:13:13.440Z,32.08
2023-04-23T12:15:50.290Z,39.38
2023-04-23T12:18:17.132Z,35.08
2023-04-23T12:20:43.810Z,29.60
2023-04-23T12:23:10.795Z,21.83
2023-04-23T12:25:37.529Z,20.30
2023-04-23T12:28:07.064Z,23.55
2023-04-23T12:30:34.657Z,27.90
2023-04-23T12:33:01.769Z,25.25
2023-04-23T12:35:44.907Z,18.13
2023-04-23T12:38:27.402Z,20.45
2023-04-23T12:40:57.965Z,15.52
2023-04-23T12:43:25.049Z,20.15
2023-04-23T12:45:52.269Z,22.92
2023-04-23T12:48:18.903Z,25.30
2023-04-23T12:50:46.234Z,18.48
2023-04-23T12:53:12.850Z,27.77
2023-04-23T12:55:39.737Z,21.38
2023-04-23T12:58:07.026Z,19.85
2023-04-23T13:00:33.662Z,11.88
2023-04-23T13:03:00.426Z,20.23
2023-04-23T13:05:27.078Z,21.33
2023-04-23T13:07:53.751Z,28.42
2023-04-23T13:10:20.277Z,12.52
2023-04-23T13:12:47.077Z,17.80
2023-04-23T13:15:13.584Z,20.80
2023-04-23T13:17:40.211Z,23.27
2023-04-23T13:20:07.429Z,17.92
2023-04-23T13:22:34.059Z,27.83
2023-04-23T13:25:00.718Z,23.95
2023-04-23T13:27:28.341Z,19.30
2023-04-23T13:29:55.330Z,17.48
2023-04-23T13:32:23.761Z,21.90
2023-04-23T13:34:50.344Z,18.50
2023-04-23T13:37:16.943Z,15.13
2023-04-23T13:39:43.879Z,17.65
2023-04-23T13:42:10.621Z,19.17
2023-04-23T13:44:37.160Z,12.82
2023-04-23T13:47:04.085Z,18.23
2023-04-23T13:49:30.676Z,18.25
2023-04-23T13:52:04.433Z,17.52
2023-04-23T13:54:30.952Z,12.70
2023-04-23T13:56:57.621Z,19.08
2023-04-23T13:59:24.874Z,20.08
2023-04-23T14:01:51.442Z,14.38
2023-04-23T14:04:18.793Z,16.75
2023-04-23T14:06:45.516Z,10.38
2023-04-23T14:09:12.194Z,12.20
2023-04-23T14:11:40.602Z,11.93
2023-04-23T14:14:07.698Z,10.32
2023-04-23T14:16:34.777Z,14.40
2023-04-23T14:19:01.378Z,12.75
2023-04-23T14:21:27.994Z,9.32
2023-04-23T14:23:54.471Z,7.90
2023-04-23T14:26:22.819Z,12.63
2023-04-23T14:28:51.459Z,15.65
2023-04-23T14:31:18.008Z,9.32
2023-04-23T14:33:46.052Z,17.42
2023-04-23T14:36:12.619Z,13.63
2023-04-23T14:38:39.100Z,7.72
2023-04-23T14:41:06.017Z,11.32
2023-04-23T14:43:34.121Z,7.20
2023-04-23T14:46:01.714Z,10.43
2023-04-23T14:48:28.368Z,15.15
2023-04-23T14:50:54.969Z,17.80
2023-04-23T14:53:21.652Z,12.73
2023-04-23T14:55:48.276Z,15.23
2023-04-23T14:58:14.807Z,12.77
2023-04-23T15:00:41.367Z,10.57
2023-04-23T15:03:11.061Z,6.82
2023-04-23T15:05:38.278Z,10.38
2023-04-23T15:08:04.891Z,7.85
2023-04-23T15:10:31.602Z,4.72
2023-04-23T15:13:01.260Z,10.38
2023-04-23T15:15:43.659Z,10.63
2023-04-23T15:18:11.713Z,18.48
2023-04-23T15:20:38.303Z,13.48
2023-04-23T15:23:04.983Z,13.93
2023-04-23T15:25:33.327Z,14.30
2023-04-23T15:28:00.912Z,17.48
2023-04-23T15:30:28.001Z,8.45
2023-04-23T15:32:57.823Z,14.07
2023-04-23T15:35:27.741Z,6.55
2023-04-23T15:37:54.360Z,15.68
2023-04-23T15:40:20.983Z,7.82
2023-04-23T15:42:49.530Z,10.02
2023-04-23T15:45:17.038Z,9.07
2023-04-23T15:47:43.658Z,9.85
2023-04-23T15:50:10.841Z,11.18
2023-04-23T15:52:37.825Z,24.50
2023-04-23T15:55:04.935Z,17.65
2023-04-23T15:57:32.081Z,26.30
2023-04-23T15:59:58.786Z,15.95
2023-04-23T16:02:25.531Z,17.58
2023-04-23T16:04:52.239Z,20.98
2023-04-23T16:07:18.791Z,25.17
2023-04-23T16:09:45.395Z,15.02
2023-04-23T16:12:12.806Z,18.02
2023-04-23T16:14:40.343Z,14.15
2023-04-23T16:17:07.114Z,16.60
2023-04-23T16:19:33.906Z,17.13
2023-04-23T16:22:00.448Z,21.80
2023-04-23T16:24:27.002Z,7.00
2023-04-23T16:26:53.916Z,17.42
2023-04-23T16:29:22.777Z,8.57
2023-04-23T16:31:49.765Z,15.10
2023-04-23T16:34:16.323Z,8.27
2023-04-23T16:36:42.984Z,14.90
2023-04-23T16:39:11.717Z,8.15
2023-04-23T16:41:38.446Z,20.90
2023-04-23T16:44:05.111Z,7.15
2023-04-23T16:46:32.089Z,9.93
2023-04-23T16:48:58.913Z,11.77
2023-04-23T16:51:27.012Z,8.20
2023-04-23T16:53:53.847Z,8.73
2023-04-23T16:56:20.876Z,9.02
2023-04-23T16:58:47.507Z,13.63
2023-04-23T17:01:14.282Z,5.75
2023-04-23T17:03:41.114Z,8.27
2023-04-23T17:06:12.244Z,11.30
2023-04-23T17:08:38.990Z,11.65
2023-04-23T17:11:06.980Z,4.80
2023-04-23T17:13:34.336Z,8.20
2023-04-23T17:16:01.551Z,10.07
2023-04-23T17:18:28.320Z,4.97
2023-04-23T17:20:54.858Z,15.07
2023-04-23T17:23:21.425Z,16.17
2023-04-23T17:25:47.965Z,12.18
2023-04-23T17:28:14.588Z,10.23
2023-04-23T17:30:41.142Z,16.02
2023-04-23T17:33:07.661Z,11.68
2023-04-23T17:35:34.212Z,15.02
2023-04-23T17:38:00.716Z,17.73
2023-04-23T17:40:27.277Z,13.48
2023-04-23T17:42:53.773Z,18.20
2023-04-23T17:45:20.338Z,19.45
2023-04-23T17:47:46.975Z,22.65
2023-04-23T17:50:13.547Z,18.50
2023-04-23T17:52:44.268Z,9.38
2023-04-23T17:55:11.177Z,17.90
2023-04-23T17:57:37.722Z,22.08
2023-04-23T18:00:09.779Z,17.77
2023-04-23T18:02:40.401Z,18.63
2023-04-23T18:05:11.114Z,13.57
2023-04-23T18:07:38.456Z,33.00
2023-04-23T18:10:05.966Z,21.73
2023-04-23T18:12:33.111Z,28.65
2023-04-23T18:14:59.899Z,31.42
2023-04-23T18:17:26.647Z,12.00
2023-04-23T18:19:53.602Z,19.27
2023-04-23T18:22:20.433Z,20.05
2023-04-23T18:24:47.236Z,15.73
2023-04-23T18:27:13.778Z,11.63
2023-04-23T18:29:41.535Z,19.73
2023-04-23T18:32:08.384Z,14.48
2023-04-23T18:34:38.811Z,8.20
2023-04-23T18:37:08.624Z,17.27
2023-04-23T18:39:35.156Z,11.75
2023-04-23T18:42:01.979Z,13.60
2023-04-23T18:44:28.593Z,21.25
2023-04-23T18:46:55.319Z,14.63
2023-04-23T18:49:33.696Z,19.15
2023-04-23T18:52:00.371Z,9.32
2023-04-23T18:54:27.033Z,8.63
2023-04-23T18:56:54.054Z,14.85
2023-04-23T18:59:20.526Z,12.25
2023-04-23T19:01:48.277Z,7.30
2023-04-23T19:04:15.341Z,11.57
2023-04-23T19:06:42.137Z,11.10
2023-04-23T19:09:08.748Z,10.30
2023-04-23T19:11:35.499Z,11.13
2023-04-23T19:14:02.103Z,12.77
2023-04-23T19:16:28.649Z,16.23
2023-04-23T19:18:55.349Z,8.93
2023-04-23T19:21:21.906Z,8.85
2023-04-23T19:23:48.468Z,10.20
2023-04-23T19:26:14.992Z,9.43
2023-04-23T19:28:41.521Z,11.27
2023-04-23T19:31:09.456Z,14.07
2023-04-23T19:33:37.140Z,14.75
2023-04-23T19:36:03.722Z,9.50
2023-04-23T19:38:30.319Z,22.00
2023-04-23T19:40:57.102Z,9.00
2023-04-23T19:43:23.716Z,11.85
2023-04-23T19:45:50.291Z,8.45
2023-04-23T19:48:16.872Z,18.52
2023-04-23T19:50:43.381Z,12.48
2023-04-23T19:53:09.898Z,10.18
2023-04-23T19:55:36.425Z,9.80
2023-04-23T19:58:06.562Z,10.15
2023-04-23T20:00:37.579Z,16.80
2023-04-23T20:03:04.626Z,12.05
2023-04-23T20:05:31.503Z,10.65
2023-04-23T20:08:00.260Z,11.60
2023-04-23T20:10:30.548Z,7.75
2023-04-23T20:12:58.928Z,8.05
2023-04-23T20:15:25.882Z,17.20
2023-04-23T20:17:52.987Z,15.23
2023-04-23T20:20:21.643Z,22.75
2023-04-23T20:22:48.491Z,19.20
2023-04-23T20:25:15.057Z,18.25
2023-04-23T20:27:41.737Z,15.13
2023-04-23T20:30:09.978Z,24.08
2023-04-23T20:32:36.928Z,19.38
2023-04-23T20:35:03.521Z,22.13
2023-04-23T20:37:30.100Z,17.85
2023-04-23T20:39:56.645Z,12.77
2023-04-23T20:42:23.301Z,18.88
2023-04-23T20:44:50.918Z,14.98
2023-04-23T20:47:17.918Z,7.80
2023-04-23T20:49:44.677Z,9.75
2023-04-23T20:52:13.513Z,16.05
2023-04-23T20:54:40.067Z,9.93
2023-04-23T20:57:07.027Z,15.00
2023-04-23T20:59:33.635Z,11.52
2023-04-23T21:02:00.171Z,27.50
2023-04-23T21:04:26.788Z,23.05
2023-04-23T21:06:53.331Z,23.60
2023-04-23T21:09:19.872Z,21.58
2023-04-23T21:11:46.421Z,16.92
2023-04-23T21:14:12.928Z,15.77
2023-04-23T21:16:39.600Z,11.05
2023-04-23T21:19:06.166Z,17.02
2023-04-23T21:21:32.909Z,22.00
2023-04-23T21:24:00.815Z,18.38
2023-04-23T21:26:28.315Z,17.95
2023-04-23T21:28:54.906Z,25.23
2023-04-23T21:31:39.487Z,17.65
2023-04-23T21:34:06.076Z,19.75
2023-04-23T21:36:32.733Z,12.48
2023-04-23T21:38:59.306Z,18.88
2023-04-23T21:41:25.859Z,12.07
2023-04-23T21:43:52.398Z,9.43
2023-04-23T21:46:19.219Z,14.07
2023-04-23T21:48:49.346Z,14.57
2023-04-23T21:51:15.824Z,9.73
2023-04-23T21:53:42.339Z,17.45
2023-04-23T21:56:08.925Z,14.10
2023-04-23T21:58:36.170Z,20.42
2023-04-23T22:01:02.754Z,16.95
2023-04-23T22:03:38.136Z,11.82
2023-04-23T22:06:05.578Z,17.35
2023-04-23T22:08:34.035Z,12.00
2023-04-23T22:11:00.720Z,23.80
2023-04-23T22:13:27.236Z,11.23
2023-04-23T22:15:53.816Z,12.77
2023-04-23T22:18:20.646Z,12.65
2023-04-23T22:20:50.798Z,17.50
2023-04-23T22:23:17.338Z,14.75
2023-04-23T22:25:43.849Z,17.33
2023-04-23T22:28:10.669Z,11.35
2023-04-23T22:30:37.255Z,11.60
